sensor_id;sensor_type;location;lat;lon;timestamp;P1;durP1;ratioP1;P2;durP2;ratioP2
55300;SDS011;58302;51.446;-2.000;2024-01-30T00:01:40;4.25;;;0.95;;
55300;SDS011;58302;51.446;-2.000;2024-01-30T00:04:06;1.50;;;0.93;;
55300;SDS011;58302;51.446;-2.000;2024-01-30T00:06:32;1.08;;;0.55;;
55300;SDS011;58302;51.446;-2.000;2024-01-30T00:08:58;0.73;;;0.60;;
55300;SDS011;58302;51.446;-2.000;2024-01-30T00:11:24;0.80;;;0.80;;
55300;SDS011;58302;51.446;-2.000;2024-01-30T00:13:54;1.33;;;0.90;;
55300;SDS011;58302;51.446;-2.000;2024-01-30T00:16:23;1.42;;;1.23;;
55300;SDS011;58302;51.446;-2.000;2024-01-30T00:18:50;2.25;;;0.90;;
55300;SDS011;58302;51.446;-2.000;2024-01-30T00:21:17;2.50;;;1.40;;
55300;SDS011;58302;51.446;-2.000;2024-01-30T00:23:44;3.55;;;0.98;;
55300;SDS011;58302;51.446;-2.000;2024-01-30T00:26:10;4.00;;;1.00;;
55300;SDS011;58302;51.446;-2.000;2024-01-30T00:28:37;1.02;;;0.77;;
55300;SDS011;58302;51.446;-2.000;2024-01-30T00:31:04;3.05;;;1.00;;
55300;SDS011;58302;51.446;-2.000;2024-01-30T00:33:30;4.43;;;1.30;;
55300;SDS011;58302;51.446;-2.000;2024-01-30T00:35:56;4.63;;;1.38;;
55300;SDS011;58302;51.446;-2.000;2024-01-30T00:38:22;3.92;;;1.25;;
55300;SDS011;58302;51.446;-2.000;2024-01-30T00:40:49;3.00;;;1.40;;
55300;SDS011;58302;51.446;-2.000;2024-01-30T00:43:15;0.93;;;0.85;;
55300;SDS011;58302;51.446;-2.000;2024-01-30T00:45:43;2.13;;;0.90;;
55300;SDS011;58302;51.446;-2.000;2024-01-30T00:48:09;4.43;;;1.25;;
55300;SDS011;58302;51.446;-2.000;2024-01-30T00:50:35;3.25;;;1.48;;
55300;SDS011;58302;51.446;-2.000;2024-01-30T00:53:01;7.22;;;1.90;;
55300;SDS011;58302;51.446;-2.000;2024-01-30T00:55:27;8.57;;;1.90;;
55300;SDS011;58302;51.446;-2.000;2024-01-30T00:57:53;2.40;;;1.60;;
55300;SDS011;58302;51.446;-2.000;2024-01-30T01:00:19;3.08;;;1.00;;
55300;SDS011;58302;51.446;-2.000;2024-01-30T01:02:46;2.35;;;0.95;;
55300;SDS011;58302;51.446;-2.000;2024-01-30T01:05:12;3.28;;;1.60;;
55300;SDS011;58302;51.446;-2.000;2024-01-30T01:07:38;2.65;;;1.27;;
55300;SDS011;58302;51.446;-2.000;2024-01-30T01:10:06;3.72;;;1.20;;
55300;SDS011;58302;51.446;-2.000;2024-01-30T01:12:32;3.38;;;1.65;;
55300;SDS011;58302;51.446;-2.000;2024-01-30T01:14:58;4.40;;;1.50;;
55300;SDS011;58302;51.446;-2.000;2024-01-30T01:17:24;2.78;;;1.42;;
55300;SDS011;58302;51.446;-2.000;2024-01-30T01:19:50;1.42;;;1.23;;
55300;SDS011;58302;51.446;-2.000;2024-01-30T01:22:16;3.05;;;2.60;;
55300;SDS011;58302;51.446;-2.000;2024-01-30T01:24:42;1.70;;;1.30;;
55300;SDS011;58302;51.446;-2.000;2024-01-30T01:27:08;2.85;;;1.33;;
55300;SDS011;58302;51.446;-2.000;2024-01-30T01:29:34;1.98;;;1.50;;
55300;SDS011;58302;51.446;-2.000;2024-01-30T01:32:00;3.33;;;1.10;;
55300;SDS011;58302;51.446;-2.000;2024-01-30T01:34:26;1.85;;;1.40;;
55300;SDS011;58302;51.446;-2.000;2024-01-30T01:36:52;4.25;;;1.40;;
55300;SDS011;58302;51.446;-2.000;2024-01-30T01:39:21;2.58;;;1.50;;
55300;SDS011;58302;51.446;-2.000;2024-01-30T01:41:49;2.72;;;2.00;;
55300;SDS011;58302;51.446;-2.000;2024-01-30T01:44:15;2.15;;;1.38;;
55300;SDS011;58302;51.446;-2.000;2024-01-30T01:46:41;1.50;;;1.40;;
55300;SDS011;58302;51.446;-2.000;2024-01-30T01:49:07;6.82;;;2.30;;
55300;SDS011;58302;51.446;-2.000;2024-01-30T01:51:34;3.10;;;1.67;;
55300;SDS011;58302;51.446;-2.000;2024-01-30T01:54:02;2.38;;;1.35;;
55300;SDS011;58302;51.446;-2.000;2024-01-30T01:56:30;5.97;;;1.77;;
55300;SDS011;58302;51.446;-2.000;2024-01-30T01:58:59;1.08;;;1.00;;
55300;SDS011;58302;51.446;-2.000;2024-01-30T02:01:30;1.85;;;1.30;;
55300;SDS011;58302;51.446;-2.000;2024-01-30T02:03:58;1.65;;;1.10;;
55300;SDS011;58302;51.446;-2.000;2024-01-30T02:06:25;1.98;;;0.90;;
55300;SDS011;58302;51.446;-2.000;2024-01-30T02:08:52;2.47;;;1.30;;
55300;SDS011;58302;51.446;-2.000;2024-01-30T02:11:19;1.35;;;1.05;;
55300;SDS011;58302;51.446;-2.000;2024-01-30T02:13:46;2.50;;;1.30;;
55300;SDS011;58302;51.446;-2.000;2024-01-30T02:16:12;1.13;;;0.82;;
55300;SDS011;58302;51.446;-2.000;2024-01-30T02:18:38;1.77;;;1.15;;
55300;SDS011;58302;51.446;-2.000;2024-01-30T02:21:08;3.00;;;1.50;;
55300;SDS011;58302;51.446;-2.000;2024-01-30T02:23:34;4.25;;;1.42;;
55300;SDS011;58302;51.446;-2.000;2024-01-30T02:26:00;2.90;;;2.10;;
55300;SDS011;58302;51.446;-2.000;2024-01-30T02:28:26;3.80;;;2.22;;
55300;SDS011;58302;51.446;-2.000;2024-01-30T02:30:55;3.60;;;2.05;;
55300;SDS011;58302;51.446;-2.000;2024-01-30T02:33:21;4.15;;;2.70;;
55300;SDS011;58302;51.446;-2.000;2024-01-30T02:35:48;4.13;;;2.35;;
55300;SDS011;58302;51.446;-2.000;2024-01-30T02:38:15;6.03;;;3.65;;
55300;SDS011;58302;51.446;-2.000;2024-01-30T02:40:41;6.22;;;3.60;;
55300;SDS011;58302;51.446;-2.000;2024-01-30T02:43:08;4.32;;;3.25;;
55300;SDS011;58302;51.446;-2.000;2024-01-30T02:45:34;7.43;;;3.78;;
55300;SDS011;58302;51.446;-2.000;2024-01-30T02:48:00;8.40;;;5.25;;
55300;SDS011;58302;51.446;-2.000;2024-01-30T02:50:26;10.00;;;5.60;;
55300;SDS011;58302;51.446;-2.000;2024-01-30T02:52:52;8.73;;;4.93;;
55300;SDS011;58302;51.446;-2.000;2024-01-30T02:55:18;6.03;;;4.35;;
55300;SDS011;58302;51.446;-2.000;2024-01-30T02:57:44;14.15;;;6.30;;
55300;SDS011;58302;51.446;-2.000;2024-01-30T03:00:10;7.55;;;4.05;;
55300;SDS011;58302;51.446;-2.000;2024-01-30T03:02:36;7.88;;;4.78;;
55300;SDS011;58302;51.446;-2.000;2024-01-30T03:05:03;5.53;;;3.95;;
55300;SDS011;58302;51.446;-2.000;2024-01-30T03:07:29;6.13;;;3.67;;
55300;SDS011;58302;51.446;-2.000;2024-01-30T03:09:55;6.43;;;3.40;;
55300;SDS011;58302;51.446;-2.000;2024-01-30T03:12:22;9.32;;;4.00;;
55300;SDS011;58302;51.446;-2.000;2024-01-30T03:14:48;3.83;;;3.30;;
55300;SDS011;58302;51.446;-2.000;2024-01-30T03:17:15;4.43;;;3.38;;
55300;SDS011;58302;51.446;-2.000;2024-01-30T03:19:42;6.55;;;2.70;;
55300;SDS011;58302;51.446;-2.000;2024-01-30T03:22:09;4.75;;;3.17;;
55300;SDS011;58302;51.446;-2.000;2024-01-30T03:24:35;4.05;;;2.67;;
55300;SDS011;58302;51.446;-2.000;2024-01-30T03:27:02;3.17;;;2.88;;
55300;SDS011;58302;51.446;-2.000;2024-01-30T03:29:28;3.67;;;2.80;;
55300;SDS011;58302;51.446;-2.000;2024-01-30T03:31:54;7.78;;;2.55;;
55300;SDS011;58302;51.446;-2.000;2024-01-30T03:34:20;4.85;;;2.60;;
55300;SDS011;58302;51.446;-2.000;2024-01-30T03:36:46;2.78;;;2.00;;
55300;SDS011;58302;51.446;-2.000;2024-01-30T03:39:12;2.22;;;1.73;;
55300;SDS011;58302;51.446;-2.000;2024-01-30T03:41:37;1.77;;;1.52;;
55300;SDS011;58302;51.446;-2.000;2024-01-30T03:44:04;1.58;;;1.40;;
55300;SDS011;58302;51.446;-2.000;2024-01-30T03:46:30;1.30;;;1.17;;
55300;SDS011;58302;51.446;-2.000;2024-01-30T03:48:55;1.70;;;1.10;;
55300;SDS011;58302;51.446;-2.000;2024-01-30T03:51:21;2.63;;;0.98;;
55300;SDS011;58302;51.446;-2.000;2024-01-30T03:53:47;3.20;;;1.08;;
55300;SDS011;58302;51.446;-2.000;2024-01-30T03:56:13;1.02;;;0.68;;
55300;SDS011;58302;51.446;-2.000;2024-01-30T03:58:39;0.65;;;0.65;;
55300;SDS011;58302;51.446;-2.000;2024-01-30T04:01:05;1.85;;;0.90;;
55300;SDS011;58302;51.446;-2.000;2024-01-30T04:03:31;0.40;;;0.40;;
55300;SDS011;58302;51.446;-2.000;2024-01-30T04:05:57;1.05;;;0.90;;
55300;SDS011;58302;51.446;-2.000;2024-01-30T04:08:23;0.38;;;0.38;;
55300;SDS011;58302;51.446;-2.000;2024-01-30T04:10:49;1.00;;;0.45;;
55300;SDS011;58302;51.446;-2.000;2024-01-30T04:13:15;1.27;;;1.23;;
55300;SDS011;58302;51.446;-2.000;2024-01-30T04:15:41;0.52;;;0.40;;
55300;SDS011;58302;51.446;-2.000;2024-01-30T04:18:07;0.63;;;0.60;;
55300;SDS011;58302;51.446;-2.000;2024-01-30T04:20:33;0.50;;;0.50;;
55300;SDS011;58302;51.446;-2.000;2024-01-30T04:22:59;1.88;;;0.50;;
55300;SDS011;58302;51.446;-2.000;2024-01-30T04:25:26;0.68;;;0.50;;
55300;SDS011;58302;51.446;-2.000;2024-01-30T04:27:52;1.17;;;0.70;;
55300;SDS011;58302;51.446;-2.000;2024-01-30T04:30:18;0.20;;;0.20;;
55300;SDS011;58302;51.446;-2.000;2024-01-30T04:32:44;0.43;;;0.43;;
55300;SDS011;58302;51.446;-2.000;2024-01-30T04:35:10;0.63;;;0.63;;
55300;SDS011;58302;51.446;-2.000;2024-01-30T04:37:36;0.40;;;0.40;;
55300;SDS011;58302;51.446;-2.000;2024-01-30T04:40:02;1.88;;;0.60;;
55300;SDS011;58302;51.446;-2.000;2024-01-30T04:42:28;0.75;;;0.75;;
55300;SDS011;58302;51.446;-2.000;2024-01-30T04:44:56;0.57;;;0.32;;
55300;SDS011;58302;51.446;-2.000;2024-01-30T04:47:22;1.02;;;0.55;;
55300;SDS011;58302;51.446;-2.000;2024-01-30T04:49:48;0.85;;;0.70;;
55300;SDS011;58302;51.446;-2.000;2024-01-30T04:52:14;0.40;;;0.38;;
55300;SDS011;58302;51.446;-2.000;2024-01-30T04:54:41;0.63;;;0.40;;
55300;SDS011;58302;51.446;-2.000;2024-01-30T04:57:07;1.27;;;0.88;;
55300;SDS011;58302;51.446;-2.000;2024-01-30T04:59:35;0.82;;;0.57;;
55300;SDS011;58302;51.446;-2.000;2024-01-30T05:02:02;1.45;;;0.68;;
55300;SDS011;58302;51.446;-2.000;2024-01-30T05:04:28;1.05;;;0.30;;
55300;SDS011;58302;51.446;-2.000;2024-01-30T05:06:54;0.82;;;0.68;;
55300;SDS011;58302;51.446;-2.000;2024-01-30T05:09:20;0.60;;;0.43;;
55300;SDS011;58302;51.446;-2.000;2024-01-30T05:11:47;1.33;;;1.00;;
55300;SDS011;58302;51.446;-2.000;2024-01-30T05:14:12;1.73;;;0.55;;
55300;SDS011;58302;51.446;-2.000;2024-01-30T05:16:40;0.50;;;0.50;;
55300;SDS011;58302;51.446;-2.000;2024-01-30T05:19:08;0.75;;;0.52;;
55300;SDS011;58302;51.446;-2.000;2024-01-30T05:21:34;2.40;;;0.70;;
55300;SDS011;58302;51.446;-2.000;2024-01-30T05:24:01;0.75;;;0.75;;
55300;SDS011;58302;51.446;-2.000;2024-01-30T05:26:27;1.27;;;0.82;;
55300;SDS011;58302;51.446;-2.000;2024-01-30T05:28:54;0.70;;;0.70;;
55300;SDS011;58302;51.446;-2.000;2024-01-30T05:31:21;0.70;;;0.43;;
55300;SDS011;58302;51.446;-2.000;2024-01-30T05:33:47;0.77;;;0.68;;
55300;SDS011;58302;51.446;-2.000;2024-01-30T05:36:13;2.58;;;1.00;;
55300;SDS011;58302;51.446;-2.000;2024-01-30T05:38:39;0.88;;;0.70;;
55300;SDS011;58302;51.446;-2.000;2024-01-30T05:41:05;4.90;;;0.82;;
55300;SDS011;58302;51.446;-2.000;2024-01-30T05:43:31;2.17;;;0.90;;
55300;SDS011;58302;51.446;-2.000;2024-01-30T05:45:57;1.65;;;0.50;;
55300;SDS011;58302;51.446;-2.000;2024-01-30T05:48:23;0.75;;;0.47;;
55300;SDS011;58302;51.446;-2.000;2024-01-30T05:50:51;0.57;;;0.50;;
55300;SDS011;58302;51.446;-2.000;2024-01-30T05:53:17;0.65;;;0.35;;
55300;SDS011;58302;51.446;-2.000;2024-01-30T05:55:43;0.43;;;0.35;;
55300;SDS011;58302;51.446;-2.000;2024-01-30T05:58:09;1.60;;;0.75;;
55300;SDS011;58302;51.446;-2.000;2024-01-30T06:00:35;0.47;;;0.40;;
55300;SDS011;58302;51.446;-2.000;2024-01-30T06:03:01;1.00;;;0.40;;
55300;SDS011;58302;51.446;-2.000;2024-01-30T06:05:27;0.68;;;0.40;;
55300;SDS011;58302;51.446;-2.000;2024-01-30T06:07:53;2.45;;;0.93;;
55300;SDS011;58302;51.446;-2.000;2024-01-30T06:10:19;1.40;;;0.52;;
55300;SDS011;58302;51.446;-2.000;2024-01-30T06:12:46;1.42;;;1.00;;
55300;SDS011;58302;51.446;-2.000;2024-01-30T06:15:12;1.80;;;1.48;;
55300;SDS011;58302;51.446;-2.000;2024-01-30T06:17:39;0.68;;;0.65;;
55300;SDS011;58302;51.446;-2.000;2024-01-30T06:20:05;2.38;;;1.23;;
55300;SDS011;58302;51.446;-2.000;2024-01-30T06:22:31;4.50;;;2.03;;
55300;SDS011;58302;51.446;-2.000;2024-01-30T06:24:57;1.50;;;1.25;;
55300;SDS011;58302;51.446;-2.000;2024-01-30T06:27:24;2.13;;;0.80;;
55300;SDS011;58302;51.446;-2.000;2024-01-30T06:29:49;1.52;;;1.20;;
55300;SDS011;58302;51.446;-2.000;2024-01-30T06:32:15;3.72;;;1.60;;
55300;SDS011;58302;51.446;-2.000;2024-01-30T06:34:41;2.10;;;1.08;;
55300;SDS011;58302;51.446;-2.000;2024-01-30T06:37:09;3.08;;;1.02;;
55300;SDS011;58302;51.446;-2.000;2024-01-30T06:39:36;1.13;;;0.95;;
55300;SDS011;58302;51.446;-2.000;2024-01-30T06:42:02;1.85;;;0.85;;
55300;SDS011;58302;51.446;-2.000;2024-01-30T06:44:30;4.05;;;1.67;;
55300;SDS011;58302;51.446;-2.000;2024-01-30T06:46:56;6.20;;;1.58;;
55300;SDS011;58302;51.446;-2.000;2024-01-30T06:49:22;3.97;;;1.30;;
55300;SDS011;58302;51.446;-2.000;2024-01-30T06:54:25;2.95;;;0.95;;
55300;SDS011;58302;51.446;-2.000;2024-01-30T06:57:09;3.53;;;1.50;;
55300;SDS011;58302;51.446;-2.000;2024-01-30T06:59:37;1.20;;;1.13;;
55300;SDS011;58302;51.446;-2.000;2024-01-30T07:04:44;0.77;;;0.77;;
55300;SDS011;58302;51.446;-2.000;2024-01-30T07:07:11;2.00;;;0.85;;
55300;SDS011;58302;51.446;-2.000;2024-01-30T07:09:39;3.47;;;1.20;;
55300;SDS011;58302;51.446;-2.000;2024-01-30T07:12:05;3.28;;;1.23;;
55300;SDS011;58302;51.446;-2.000;2024-01-30T07:14:40;0.93;;;0.82;;
55300;SDS011;58302;51.446;-2.000;2024-01-30T07:27:34;3.55;;;1.27;;
55300;SDS011;58302;51.446;-2.000;2024-01-30T07:30:00;2.58;;;0.93;;
55300;SDS011;58302;51.446;-2.000;2024-01-30T07:32:26;2.55;;;1.52;;
55300;SDS011;58302;51.446;-2.000;2024-01-30T07:34:52;6.10;;;1.20;;
55300;SDS011;58302;51.446;-2.000;2024-01-30T07:37:18;4.78;;;1.20;;
55300;SDS011;58302;51.446;-2.000;2024-01-30T07:39:45;3.45;;;2.10;;
55300;SDS011;58302;51.446;-2.000;2024-01-30T07:42:11;2.88;;;1.40;;
55300;SDS011;58302;51.446;-2.000;2024-01-30T07:44:37;1.98;;;1.55;;
55300;SDS011;58302;51.446;-2.000;2024-01-30T07:47:04;3.30;;;2.00;;
55300;SDS011;58302;51.446;-2.000;2024-01-30T07:49:31;4.30;;;1.80;;
55300;SDS011;58302;51.446;-2.000;2024-01-30T07:52:00;2.65;;;1.63;;
55300;SDS011;58302;51.446;-2.000;2024-01-30T07:54:26;4.55;;;2.05;;
55300;SDS011;58302;51.446;-2.000;2024-01-30T07:56:52;3.63;;;2.17;;
55300;SDS011;58302;51.446;-2.000;2024-01-30T07:59:18;4.32;;;2.00;;
55300;SDS011;58302;51.446;-2.000;2024-01-30T08:01:47;7.55;;;2.78;;
55300;SDS011;58302;51.446;-2.000;2024-01-30T08:04:13;4.60;;;2.10;;
55300;SDS011;58302;51.446;-2.000;2024-01-30T08:06:39;7.10;;;3.05;;
55300;SDS011;58302;51.446;-2.000;2024-01-30T08:09:06;4.88;;;2.83;;
55300;SDS011;58302;51.446;-2.000;2024-01-30T08:11:32;6.28;;;2.88;;
55300;SDS011;58302;51.446;-2.000;2024-01-30T08:13:59;7.70;;;2.97;;
55300;SDS011;58302;51.446;-2.000;2024-01-30T08:16:26;8.18;;;3.78;;
55300;SDS011;58302;51.446;-2.000;2024-01-30T08:18:52;6.50;;;3.40;;
55300;SDS011;58302;51.446;-2.000;2024-01-30T08:21:22;5.22;;;3.42;;
55300;SDS011;58302;51.446;-2.000;2024-01-30T08:23:49;8.57;;;3.38;;
55300;SDS011;58302;51.446;-2.000;2024-01-30T08:26:15;7.85;;;3.65;;
55300;SDS011;58302;51.446;-2.000;2024-01-30T08:28:41;8.38;;;3.70;;
55300;SDS011;58302;51.446;-2.000;2024-01-30T08:31:07;6.53;;;3.25;;
55300;SDS011;58302;51.446;-2.000;2024-01-30T08:33:36;13.63;;;4.05;;
55300;SDS011;58302;51.446;-2.000;2024-01-30T08:36:05;7.47;;;3.90;;
55300;SDS011;58302;51.446;-2.000;2024-01-30T08:38:31;8.23;;;4.13;;
55300;SDS011;58302;51.446;-2.000;2024-01-30T08:40:57;7.45;;;5.13;;
55300;SDS011;58302;51.446;-2.000;2024-01-30T08:43:23;3.42;;;2.78;;
55300;SDS011;58302;51.446;-2.000;2024-01-30T08:45:49;7.68;;;3.15;;
55300;SDS011;58302;51.446;-2.000;2024-01-30T08:48:15;9.77;;;3.78;;
55300;SDS011;58302;51.446;-2.000;2024-01-30T08:50:43;6.70;;;2.47;;
55300;SDS011;58302;51.446;-2.000;2024-01-30T08:53:09;6.43;;;2.70;;
55300;SDS011;58302;51.446;-2.000;2024-01-30T08:55:35;6.72;;;3.33;;
55300;SDS011;58302;51.446;-2.000;2024-01-30T08:58:01;10.45;;;3.72;;
55300;SDS011;58302;51.446;-2.000;2024-01-30T09:00:29;3.42;;;2.72;;
55300;SDS011;58302;51.446;-2.000;2024-01-30T09:02:55;4.03;;;2.97;;
55300;SDS011;58302;51.446;-2.000;2024-01-30T09:05:21;8.50;;;3.88;;
55300;SDS011;58302;51.446;-2.000;2024-01-30T09:07:47;6.18;;;3.47;;
55300;SDS011;58302;51.446;-2.000;2024-01-30T09:10:14;8.68;;;4.07;;
55300;SDS011;58302;51.446;-2.000;2024-01-30T09:12:40;5.70;;;3.42;;
55300;SDS011;58302;51.446;-2.000;2024-01-30T09:15:07;5.65;;;3.75;;
55300;SDS011;58302;51.446;-2.000;2024-01-30T09:17:34;6.90;;;3.47;;
55300;SDS011;58302;51.446;-2.000;2024-01-30T09:20:09;6.32;;;3.35;;
55300;SDS011;58302;51.446;-2.000;2024-01-30T09:22:36;8.48;;;3.60;;
55300;SDS011;58302;51.446;-2.000;2024-01-30T09:25:03;6.88;;;3.35;;
55300;SDS011;58302;51.446;-2.000;2024-01-30T09:27:31;4.63;;;3.03;;
55300;SDS011;58302;51.446;-2.000;2024-01-30T09:29:58;5.97;;;3.50;;
55300;SDS011;58302;51.446;-2.000;2024-01-30T09:32:28;5.63;;;2.92;;
55300;SDS011;58302;51.446;-2.000;2024-01-30T09:34:55;6.07;;;2.95;;
55300;SDS011;58302;51.446;-2.000;2024-01-30T09:37:22;7.07;;;3.05;;
55300;SDS011;58302;51.446;-2.000;2024-01-30T09:39:48;11.45;;;3.58;;
55300;SDS011;58302;51.446;-2.000;2024-01-30T09:45:02;8.48;;;4.25;;
55300;SDS011;58302;51.446;-2.000;2024-01-30T09:47:33;6.30;;;2.92;;
55300;SDS011;58302;51.446;-2.000;2024-01-30T09:50:11;10.43;;;3.78;;
55300;SDS011;58302;51.446;-2.000;2024-01-30T09:52:39;5.97;;;2.92;;
55300;SDS011;58302;51.446;-2.000;2024-01-30T09:55:06;8.43;;;2.95;;
55300;SDS011;58302;51.446;-2.000;2024-01-30T09:57:33;7.93;;;3.17;;
55300;SDS011;58302;51.446;-2.000;2024-01-30T10:00:00;4.95;;;2.95;;
55300;SDS011;58302;51.446;-2.000;2024-01-30T10:02:27;7.47;;;2.95;;
55300;SDS011;58302;51.446;-2.000;2024-01-30T10:04:53;7.75;;;2.65;;
55300;SDS011;58302;51.446;-2.000;2024-01-30T10:07:19;4.50;;;2.97;;
55300;SDS011;58302;51.446;-2.000;2024-01-30T10:09:46;4.35;;;2.38;;
55300;SDS011;58302;51.446;-2.000;2024-01-30T10:12:12;4.15;;;2.53;;
55300;SDS011;58302;51.446;-2.000;2024-01-30T10:14:39;7.22;;;2.25;;
55300;SDS011;58302;51.446;-2.000;2024-01-30T10:17:10;1.95;;;1.73;;
55300;SDS011;58302;51.446;-2.000;2024-01-30T10:19:37;2.80;;;1.48;;
55300;SDS011;58302;51.446;-2.000;2024-01-30T10:22:05;4.13;;;1.90;;
55300;SDS011;58302;51.446;-2.000;2024-01-30T10:24:32;4.43;;;1.75;;
55300;SDS011;58302;51.446;-2.000;2024-01-30T10:26:59;5.45;;;1.63;;
55300;SDS011;58302;51.446;-2.000;2024-01-30T10:29:26;1.77;;;1.08;;
55300;SDS011;58302;51.446;-2.000;2024-01-30T10:34:25;5.90;;;2.78;;
55300;SDS011;58302;51.446;-2.000;2024-01-30T10:36:55;4.65;;;2.38;;
55300;SDS011;58302;51.446;-2.000;2024-01-30T10:39:27;2.05;;;1.30;;
55300;SDS011;58302;51.446;-2.000;2024-01-30T10:41:55;6.60;;;2.00;;
55300;SDS011;58302;51.446;-2.000;2024-01-30T10:44:25;2.58;;;1.60;;
55300;SDS011;58302;51.446;-2.000;2024-01-30T10:46:59;3.60;;;1.92;;
55300;SDS011;58302;51.446;-2.000;2024-01-30T10:49:29;1.50;;;1.23;;
55300;SDS011;58302;51.446;-2.000;2024-01-30T10:51:55;2.78;;;1.38;;
55300;SDS011;58302;51.446;-2.000;2024-01-30T10:54:23;2.00;;;1.45;;
55300;SDS011;58302;51.446;-2.000;2024-01-30T10:56:50;2.53;;;1.95;;
55300;SDS011;58302;51.446;-2.000;2024-01-30T10:59:16;2.72;;;1.85;;
55300;SDS011;58302;51.446;-2.000;2024-01-30T11:01:43;4.03;;;1.95;;
55300;SDS011;58302;51.446;-2.000;2024-01-30T11:04:10;1.20;;;1.00;;
55300;SDS011;58302;51.446;-2.000;2024-01-30T11:06:42;2.55;;;1.40;;
55300;SDS011;58302;51.446;-2.000;2024-01-30T11:09:10;8.07;;;2.42;;
55300;SDS011;58302;51.446;-2.000;2024-01-30T11:11:48;1.48;;;1.27;;
55300;SDS011;58302;51.446;-2.000;2024-01-30T11:14:15;2.65;;;1.73;;
55300;SDS011;58302;51.446;-2.000;2024-01-30T11:16:42;4.00;;;1.10;;
55300;SDS011;58302;51.446;-2.000;2024-01-30T11:19:12;7.90;;;1.60;;
55300;SDS011;58302;51.446;-2.000;2024-01-30T11:21:42;2.80;;;1.10;;
55300;SDS011;58302;51.446;-2.000;2024-01-30T11:24:08;3.33;;;1.60;;
55300;SDS011;58302;51.446;-2.000;2024-01-30T11:26:34;1.67;;;1.30;;
55300;SDS011;58302;51.446;-2.000;2024-01-30T11:29:07;0.90;;;0.90;;
55300;SDS011;58302;51.446;-2.000;2024-01-30T11:31:33;1.00;;;0.93;;
55300;SDS011;58302;51.446;-2.000;2024-01-30T11:33:59;2.85;;;1.17;;
55300;SDS011;58302;51.446;-2.000;2024-01-30T11:36:25;4.05;;;1.42;;
55300;SDS011;58302;51.446;-2.000;2024-01-30T11:38:52;1.55;;;1.45;;
55300;SDS011;58302;51.446;-2.000;2024-01-30T11:41:20;1.20;;;0.77;;
55300;SDS011;58302;51.446;-2.000;2024-01-30T11:43:53;3.17;;;1.13;;
55300;SDS011;58302;51.446;-2.000;2024-01-30T11:46:20;2.70;;;1.27;;
55300;SDS011;58302;51.446;-2.000;2024-01-30T11:48:46;2.95;;;1.50;;
55300;SDS011;58302;51.446;-2.000;2024-01-30T11:51:12;3.55;;;1.65;;
55300;SDS011;58302;51.446;-2.000;2024-01-30T11:53:39;1.77;;;1.30;;
55300;SDS011;58302;51.446;-2.000;2024-01-30T11:56:08;2.92;;;1.23;;
55300;SDS011;58302;51.446;-2.000;2024-01-30T11:58:34;3.65;;;1.00;;
55300;SDS011;58302;51.446;-2.000;2024-01-30T12:01:00;1.08;;;0.43;;
55300;SDS011;58302;51.446;-2.000;2024-01-30T12:03:26;0.80;;;0.80;;
55300;SDS011;58302;51.446;-2.000;2024-01-30T12:05:56;1.17;;;0.77;;
55300;SDS011;58302;51.446;-2.000;2024-01-30T12:08:24;7.05;;;1.00;;
55300;SDS011;58302;51.446;-2.000;2024-01-30T12:10:56;1.38;;;0.52;;
55300;SDS011;58302;51.446;-2.000;2024-01-30T12:13:24;1.80;;;0.97;;
55300;SDS011;58302;51.446;-2.000;2024-01-30T12:15:51;1.92;;;0.70;;
55300;SDS011;58302;51.446;-2.000;2024-01-30T12:18:21;3.97;;;0.80;;
55300;SDS011;58302;51.446;-2.000;2024-01-30T12:20:57;0.20;;;0.20;;
55300;SDS011;58302;51.446;-2.000;2024-01-30T12:23:26;0.05;;;0.05;;
55300;SDS011;58302;51.446;-2.000;2024-01-30T12:25:54;0.43;;;0.35;;
55300;SDS011;58302;51.446;-2.000;2024-01-30T12:28:20;0.30;;;0.22;;
55300;SDS011;58302;51.446;-2.000;2024-01-30T12:30:46;0.55;;;0.38;;
55300;SDS011;58302;51.446;-2.000;2024-01-30T12:33:17;0.55;;;0.47;;
55300;SDS011;58302;51.446;-2.000;2024-01-30T12:35:47;2.30;;;0.30;;
55300;SDS011;58302;51.446;-2.000;2024-01-30T12:38:14;0.75;;;0.20;;
55300;SDS011;58302;51.446;-2.000;2024-01-30T12:40:40;0.47;;;0.35;;
55300;SDS011;58302;51.446;-2.000;2024-01-30T12:43:06;0.98;;;0.57;;
55300;SDS011;58302;51.446;-2.000;2024-01-30T12:45:32;2.40;;;0.52;;
55300;SDS011;58302;51.446;-2.000;2024-01-30T12:47:58;2.95;;;1.45;;
55300;SDS011;58302;51.446;-2.000;2024-01-30T12:50:26;1.92;;;0.93;;
55300;SDS011;58302;51.446;-2.000;2024-01-30T12:52:52;0.65;;;0.40;;
55300;SDS011;58302;51.446;-2.000;2024-01-30T12:55:18;1.58;;;1.48;;
55300;SDS011;58302;51.446;-2.000;2024-01-30T12:57:44;0.82;;;0.70;;
55300;SDS011;58302;51.446;-2.000;2024-01-30T13:00:10;0.68;;;0.50;;
55300;SDS011;58302;51.446;-2.000;2024-01-30T13:02:36;0.35;;;0.30;;
55300;SDS011;58302;51.446;-2.000;2024-01-30T13:05:03;1.85;;;0.60;;
55300;SDS011;58302;51.446;-2.000;2024-01-30T13:07:30;0.45;;;0.40;;
55300;SDS011;58302;51.446;-2.000;2024-01-30T13:09:57;1.08;;;0.60;;
55300;SDS011;58302;51.446;-2.000;2024-01-30T13:12:30;0.70;;;0.40;;
55300;SDS011;58302;51.446;-2.000;2024-01-30T13:14:59;1.48;;;0.70;;
55300;SDS011;58302;51.446;-2.000;2024-01-30T13:17:27;0.10;;;0.10;;
55300;SDS011;58302;51.446;-2.000;2024-01-30T13:19:54;0.77;;;0.50;;
55300;SDS011;58302;51.446;-2.000;2024-01-30T13:22:21;0.30;;;0.20;;
55300;SDS011;58302;51.446;-2.000;2024-01-30T13:24:47;2.63;;;0.43;;
55300;SDS011;58302;51.446;-2.000;2024-01-30T13:27:13;0.20;;;0.20;;
55300;SDS011;58302;51.446;-2.000;2024-01-30T13:29:39;0.60;;;0.30;;
55300;SDS011;58302;51.446;-2.000;2024-01-30T13:32:05;0.43;;;0.43;;
55300;SDS011;58302;51.446;-2.000;2024-01-30T13:34:32;0.50;;;0.50;;
55300;SDS011;58302;51.446;-2.000;2024-01-30T13:36:58;0.80;;;0.68;;
55300;SDS011;58302;51.446;-2.000;2024-01-30T13:39:24;0.80;;;0.43;;
55300;SDS011;58302;51.446;-2.000;2024-01-30T13:41:50;0.52;;;0.52;;
55300;SDS011;58302;51.446;-2.000;2024-01-30T13:44:16;0.43;;;0.30;;
55300;SDS011;58302;51.446;-2.000;2024-01-30T13:46:42;1.77;;;0.95;;
55300;SDS011;58302;51.446;-2.000;2024-01-30T13:49:09;1.55;;;0.60;;
55300;SDS011;58302;51.446;-2.000;2024-01-30T13:51:35;0.60;;;0.50;;
55300;SDS011;58302;51.446;-2.000;2024-01-30T13:54:01;0.63;;;0.55;;
55300;SDS011;58302;51.446;-2.000;2024-01-30T13:56:27;1.52;;;0.73;;
55300;SDS011;58302;51.446;-2.000;2024-01-30T13:58:53;0.80;;;0.80;;
55300;SDS011;58302;51.446;-2.000;2024-01-30T14:01:21;0.70;;;0.70;;
55300;SDS011;58302;51.446;-2.000;2024-01-30T14:03:47;3.42;;;1.40;;
55300;SDS011;58302;51.446;-2.000;2024-01-30T14:06:13;2.80;;;1.08;;
55300;SDS011;58302;51.446;-2.000;2024-01-30T14:08:39;1.95;;;1.27;;
55300;SDS011;58302;51.446;-2.000;2024-01-30T14:11:05;1.25;;;0.77;;
55300;SDS011;58302;51.446;-2.000;2024-01-30T14:13:32;0.70;;;0.68;;
55300;SDS011;58302;51.446;-2.000;2024-01-30T14:15:58;2.55;;;1.42;;
55300;SDS011;58302;51.446;-2.000;2024-01-30T14:18:24;1.80;;;1.23;;
55300;SDS011;58302;51.446;-2.000;2024-01-30T14:20:51;2.53;;;1.50;;
55300;SDS011;58302;51.446;-2.000;2024-01-30T14:23:17;2.30;;;0.80;;
55300;SDS011;58302;51.446;-2.000;2024-01-30T14:25:45;1.35;;;1.08;;
55300;SDS011;58302;51.446;-2.000;2024-01-30T14:28:11;1.35;;;1.10;;
55300;SDS011;58302;51.446;-2.000;2024-01-30T14:30:37;1.27;;;0.80;;
55300;SDS011;58302;51.446;-2.000;2024-01-30T14:33:03;0.77;;;0.77;;
55300;SDS011;58302;51.446;-2.000;2024-01-30T14:35:29;0.50;;;0.50;;
55300;SDS011;58302;51.446;-2.000;2024-01-30T14:37:55;4.47;;;0.77;;
55300;SDS011;58302;51.446;-2.000;2024-01-30T14:40:22;0.50;;;0.50;;
55300;SDS011;58302;51.446;-2.000;2024-01-30T14:42:49;0.32;;;0.30;;
55300;SDS011;58302;51.446;-2.000;2024-01-30T14:45:15;0.55;;;0.35;;
55300;SDS011;58302;51.446;-2.000;2024-01-30T14:47:42;0.40;;;0.40;;
55300;SDS011;58302;51.446;-2.000;2024-01-30T14:50:26;1.33;;;0.30;;
55300;SDS011;58302;51.446;-2.000;2024-01-30T14:52:59;0.85;;;0.50;;